sensor_id;sensor_type;location;lat;lon;timestamp;temperature;humidity
78325;DHT22;67584;51.400;6.692;2023-09-19T00:00:21;16.20;78.80
78325;DHT22;67584;51.400;6.692;2023-09-19T00:02:56;16.10;78.90
78325;DHT22;67584;51.400;6.692;2023-09-19T00:05:23;16.10;78.90
78325;DHT22;67584;51.400;6.692;2023-09-19T00:07:53;16.10;78.70
78325;DHT22;67584;51.400;6.692;2023-09-19T00:10:22;16.10;78.90
78325;DHT22;67584;51.400;6.692;2023-09-19T00:12:55;16.10;79.00
78325;DHT22;67584;51.400;6.692;2023-09-19T00:15:24;16.00;79.30
78325;DHT22;67584;51.400;6.692;2023-09-19T00:17:52;16.00;79.70
78325;DHT22;67584;51.400;6.692;2023-09-19T00:20:20;15.90;80.10
78325;DHT22;67584;51.400;6.692;2023-09-19T00:22:51;15.80;80.20
78325;DHT22;67584;51.400;6.692;2023-09-19T00:25:20;15.90;80.20
78325;DHT22;67584;51.400;6.692;2023-09-19T00:27:46;15.80;80.50
78325;DHT22;67584;51.400;6.692;2023-09-19T00:30:17;15.90;80.30
78325;DHT22;67584;51.400;6.692;2023-09-19T00:32:50;15.90;80.40
78325;DHT22;67584;51.400;6.692;2023-09-19T00:35:20;15.80;80.40
78325;DHT22;67584;51.400;6.692;2023-09-19T00:37:49;15.80;80.50
78325;DHT22;67584;51.400;6.692;2023-09-19T00:40:15;15.80;80.40
78325;DHT22;67584;51.400;6.692;2023-09-19T00:42:42;15.70;80.50
78325;DHT22;67584;51.400;6.692;2023-09-19T00:45:09;15.70;80.80
78325;DHT22;67584;51.400;6.692;2023-09-19T00:47:39;15.70;80.60
78325;DHT22;67584;51.400;6.692;2023-09-19T00:50:05;15.70;80.80
78325;DHT22;67584;51.400;6.692;2023-09-19T00:52:36;15.70;80.80
78325;DHT22;67584;51.400;6.692;2023-09-19T00:55:08;15.60;81.00
78325;DHT22;67584;51.400;6.692;2023-09-19T00:57:34;15.70;80.90
78325;DHT22;67584;51.400;6.692;2023-09-19T01:00:03;15.80;80.70
78325;DHT22;67584;51.400;6.692;2023-09-19T01:02:34;15.60;80.80
78325;DHT22;67584;51.400;6.692;2023-09-19T01:05:00;15.60;81.00
78325;DHT22;67584;51.400;6.692;2023-09-19T01:07:30;15.60;81.30
78325;DHT22;67584;51.400;6.692;2023-09-19T01:09:57;15.60;80.90
78325;DHT22;67584;51.400;6.692;2023-09-19T01:12:30;15.60;81.20
78325;DHT22;67584;51.400;6.692;2023-09-19T01:15:15;15.50;80.90
78325;DHT22;67584;51.400;6.692;2023-09-19T01:18:00;15.50;81.60
78325;DHT22;67584;51.400;6.692;2023-09-19T01:23:20;15.40;81.40
78325;DHT22;67584;51.400;6.692;2023-09-19T01:28:34;15.20;81.40
78325;DHT22;67584;51.400;6.692;2023-09-19T01:31:10;15.40;80.60
78325;DHT22;67584;51.400;6.692;2023-09-19T01:33:56;15.30;80.80
78325;DHT22;67584;51.400;6.692;2023-09-19T01:36:23;15.30;80.50
78325;DHT22;67584;51.400;6.692;2023-09-19T01:38:50;15.30;80.60
78325;DHT22;67584;51.400;6.692;2023-09-19T01:41:26;15.20;80.60
78325;DHT22;67584;51.400;6.692;2023-09-19T01:43:55;15.20;80.80
78325;DHT22;67584;51.400;6.692;2023-09-19T01:46:25;15.20;80.40
78325;DHT22;67584;51.400;6.692;2023-09-19T01:54:28;15.20;80.20
78325;DHT22;67584;51.400;6.692;2023-09-19T01:57:40;15.10;80.10
78325;DHT22;67584;51.400;6.692;2023-09-19T02:00:10;15.20;80.00
78325;DHT22;67584;51.400;6.692;2023-09-19T02:02:44;15.20;80.00
78325;DHT22;67584;51.400;6.692;2023-09-19T02:05:10;15.20;79.90
78325;DHT22;67584;51.400;6.692;2023-09-19T02:07:38;15.20;79.90
78325;DHT22;67584;51.400;6.692;2023-09-19T02:10:07;15.10;80.00
78325;DHT22;67584;51.400;6.692;2023-09-19T02:12:35;15.20;80.00
78325;DHT22;67584;51.400;6.692;2023-09-19T02:15:03;15.20;79.90
78325;DHT22;67584;51.400;6.692;2023-09-19T02:17:29;15.20;80.10
78325;DHT22;67584;51.400;6.692;2023-09-19T02:19:56;15.20;80.10
78325;DHT22;67584;51.400;6.692;2023-09-19T02:22:22;15.20;80.50
78325;DHT22;67584;51.400;6.692;2023-09-19T02:24:48;15.10;80.50
78325;DHT22;67584;51.400;6.692;2023-09-19T02:27:14;15.00;80.80
78325;DHT22;67584;51.400;6.692;2023-09-19T02:29:44;15.00;80.60
78325;DHT22;67584;51.400;6.692;2023-09-19T02:32:10;15.00;80.90
78325;DHT22;67584;51.400;6.692;2023-09-19T02:34:36;15.10;80.90
78325;DHT22;67584;51.400;6.692;2023-09-19T02:37:08;15.10;80.50
78325;DHT22;67584;51.400;6.692;2023-09-19T02:39:38;15.10;80.50
78325;DHT22;67584;51.400;6.692;2023-09-19T02:42:04;15.00;80.50
78325;DHT22;67584;51.400;6.692;2023-09-19T02:44:30;15.00;80.40
78325;DHT22;67584;51.400;6.692;2023-09-19T02:46:57;15.00;80.20
78325;DHT22;67584;51.400;6.692;2023-09-19T02:49:23;14.90;80.10
78325;DHT22;67584;51.400;6.692;2023-09-19T02:51:49;14.90;79.80
78325;DHT22;67584;51.400;6.692;2023-09-19T02:54:14;15.00;79.30
78325;DHT22;67584;51.400;6.692;2023-09-19T02:56:41;15.00;79.10
78325;DHT22;67584;51.400;6.692;2023-09-19T02:59:07;15.00;78.20
78325;DHT22;67584;51.400;6.692;2023-09-19T03:01:36;15.00;78.40
78325;DHT22;67584;51.400;6.692;2023-09-19T03:04:04;14.90;78.80
78325;DHT22;67584;51.400;6.692;2023-09-19T03:06:33;14.90;78.60
78325;DHT22;67584;51.400;6.692;2023-09-19T03:08:59;14.90;78.60
78325;DHT22;67584;51.400;6.692;2023-09-19T03:11:26;14.80;78.80
78325;DHT22;67584;51.400;6.692;2023-09-19T03:13:55;14.80;78.90
78325;DHT22;67584;51.400;6.692;2023-09-19T03:16:22;14.70;79.00
78325;DHT22;67584;51.400;6.692;2023-09-19T03:18:49;14.80;79.10
78325;DHT22;67584;51.400;6.692;2023-09-19T03:21:16;14.80;79.40
78325;DHT22;67584;51.400;6.692;2023-09-19T03:23:43;14.80;79.00
78325;DHT22;67584;51.400;6.692;2023-09-19T03:26:13;14.80;79.10
78325;DHT22;67584;51.400;6.692;2023-09-19T03:28:41;14.80;78.90
78325;DHT22;67584;51.400;6.692;2023-09-19T03:31:09;14.70;79.20
78325;DHT22;67584;51.400;6.692;2023-09-19T03:33:36;14.70;79.30
78325;DHT22;67584;51.400;6.692;2023-09-19T03:36:03;14.70;79.40
78325;DHT22;67584;51.400;6.692;2023-09-19T03:38:30;14.80;79.50
78325;DHT22;67584;51.400;6.692;2023-09-19T03:40:57;14.80;79.20
78325;DHT22;67584;51.400;6.692;2023-09-19T03:43:22;14.70;79.50
78325;DHT22;67584;51.400;6.692;2023-09-19T03:45:48;14.60;79.70
78325;DHT22;67584;51.400;6.692;2023-09-19T03:48:14;14.60;79.50
78325;DHT22;67584;51.400;6.692;2023-09-19T03:50:40;14.80;79.40
78325;DHT22;67584;51.400;6.692;2023-09-19T03:53:06;14.70;79.40
78325;DHT22;67584;51.400;6.692;2023-09-19T03:55:35;14.80;79.60
78325;DHT22;67584;51.400;6.692;2023-09-19T03:58:02;14.80;79.90
78325;DHT22;67584;51.400;6.692;2023-09-19T04:00:27;14.70;79.80
78325;DHT22;67584;51.400;6.692;2023-09-19T04:02:55;14.80;79.70
78325;DHT22;67584;51.400;6.692;2023-09-19T04:05:23;14.80;79.40
78325;DHT22;67584;51.400;6.692;2023-09-19T04:07:49;14.80;79.40
78325;DHT22;67584;51.400;6.692;2023-09-19T04:10:15;14.80;79.70
78325;DHT22;67584;51.400;6.692;2023-09-19T04:12:53;14.70;79.80
78325;DHT22;67584;51.400;6.692;2023-09-19T04:15:19;14.70;80.10
78325;DHT22;67584;51.400;6.692;2023-09-19T04:17:45;14.70;80.00
78325;DHT22;67584;51.400;6.692;2023-09-19T04:20:10;14.60;80.10
78325;DHT22;67584;51.400;6.692;2023-09-19T04:22:38;14.60;80.30
78325;DHT22;67584;51.400;6.692;2023-09-19T04:25:05;14.60;80.30
78325;DHT22;67584;51.400;6.692;2023-09-19T04:27:32;14.50;80.30
78325;DHT22;67584;51.400;6.692;2023-09-19T04:29:59;14.50;80.70
78325;DHT22;67584;51.400;6.692;2023-09-19T04:32:29;14.50;80.50
78325;DHT22;67584;51.400;6.692;2023-09-19T04:34:55;14.70;80.20
78325;DHT22;67584;51.400;6.692;2023-09-19T04:37:25;14.70;80.30
78325;DHT22;67584;51.400;6.692;2023-09-19T04:39:51;14.70;80.30
78325;DHT22;67584;51.400;6.692;2023-09-19T04:42:16;14.70;80.40
78325;DHT22;67584;51.400;6.692;2023-09-19T04:44:43;14.50;80.60
78325;DHT22;67584;51.400;6.692;2023-09-19T04:47:08;14.60;81.00
78325;DHT22;67584;51.400;6.692;2023-09-19T04:49:34;14.50;80.90
78325;DHT22;67584;51.400;6.692;2023-09-19T04:52:00;14.60;80.90
78325;DHT22;67584;51.400;6.692;2023-09-19T04:54:26;14.50;81.10
78325;DHT22;67584;51.400;6.692;2023-09-19T04:56:52;14.60;81.10
78325;DHT22;67584;51.400;6.692;2023-09-19T04:59:18;14.60;81.30
78325;DHT22;67584;51.400;6.692;2023-09-19T05:01:44;14.50;81.50
78325;DHT22;67584;51.400;6.692;2023-09-19T05:04:09;14.50;81.50
78325;DHT22;67584;51.400;6.692;2023-09-19T05:06:35;14.40;81.60
78325;DHT22;67584;51.400;6.692;2023-09-19T05:09:01;14.50;81.40
78325;DHT22;67584;51.400;6.692;2023-09-19T05:11:27;14.60;80.90
78325;DHT22;67584;51.400;6.692;2023-09-19T05:13:55;14.70;80.60
78325;DHT22;67584;51.400;6.692;2023-09-19T05:16:21;14.60;80.60
78325;DHT22;67584;51.400;6.692;2023-09-19T05:18:47;14.70;80.00
78325;DHT22;67584;51.400;6.692;2023-09-19T05:21:15;14.80;80.10
78325;DHT22;67584;51.400;6.692;2023-09-19T05:23:40;14.70;79.90
78325;DHT22;67584;51.400;6.692;2023-09-19T05:26:06;14.90;79.10
78325;DHT22;67584;51.400;6.692;2023-09-19T05:28:32;15.00;78.80
78325;DHT22;67584;51.400;6.692;2023-09-19T05:31:03;15.10;78.20
78325;DHT22;67584;51.400;6.692;2023-09-19T05:33:28;15.10;78.10
78325;DHT22;67584;51.400;6.692;2023-09-19T05:35:56;15.10;78.30
78325;DHT22;67584;51.400;6.692;2023-09-19T05:38:22;15.10;78.30
78325;DHT22;67584;51.400;6.692;2023-09-19T05:40:48;15.20;78.00
78325;DHT22;67584;51.400;6.692;2023-09-19T05:43:13;15.20;78.00
78325;DHT22;67584;51.400;6.692;2023-09-19T05:45:42;15.20;77.70
78325;DHT22;67584;51.400;6.692;2023-09-19T05:48:12;15.20;77.80
78325;DHT22;67584;51.400;6.692;2023-09-19T05:50:41;15.20;77.50
78325;DHT22;67584;51.400;6.692;2023-09-19T05:53:08;15.20;77.80
78325;DHT22;67584;51.400;6.692;2023-09-19T05:55:37;15.20;77.40
78325;DHT22;67584;51.400;6.692;2023-09-19T05:58:03;15.30;77.10
78325;DHT22;67584;51.400;6.692;2023-09-19T06:00:29;15.30;77.20
78325;DHT22;67584;51.400;6.692;2023-09-19T06:02:56;15.30;77.20
78325;DHT22;67584;51.400;6.692;2023-09-19T06:05:23;15.30;77.00
78325;DHT22;67584;51.400;6.692;2023-09-19T06:07:49;15.50;76.70
78325;DHT22;67584;51.400;6.692;2023-09-19T06:10:16;15.40;77.00
78325;DHT22;67584;51.400;6.692;2023-09-19T06:12:43;15.50;76.60
78325;DHT22;67584;51.400;6.692;2023-09-19T06:15:15;15.40;76.50
78325;DHT22;67584;51.400;6.692;2023-09-19T06:17:48;15.50;76.40
78325;DHT22;67584;51.400;6.692;2023-09-19T06:20:15;15.60;76.40
78325;DHT22;67584;51.400;6.692;2023-09-19T06:22:43;15.60;76.10
78325;DHT22;67584;51.400;6.692;2023-09-19T06:25:13;15.60;76.10
78325;DHT22;67584;51.400;6.692;2023-09-19T06:27:52;15.60;76.30
78325;DHT22;67584;51.400;6.692;2023-09-19T06:30:20;15.60;76.20
78325;DHT22;67584;51.400;6.692;2023-09-19T06:32:45;15.60;76.00
78325;DHT22;67584;51.400;6.692;2023-09-19T06:35:12;15.70;76.30
78325;DHT22;67584;51.400;6.692;2023-09-19T06:37:39;15.70;76.40
78325;DHT22;67584;51.400;6.692;2023-09-19T06:40:13;15.70;76.30
78325;DHT22;67584;51.400;6.692;2023-09-19T06:42:47;15.70;76.40
78325;DHT22;67584;51.400;6.692;2023-09-19T06:45:15;15.80;76.50
78325;DHT22;67584;51.400;6.692;2023-09-19T06:47:48;15.80;76.50
78325;DHT22;67584;51.400;6.692;2023-09-19T06:50:18;15.90;76.30
78325;DHT22;67584;51.400;6.692;2023-09-19T06:52:45;15.90;76.40
78325;DHT22;67584;51.400;6.692;2023-09-19T06:55:12;16.00;76.70
78325;DHT22;67584;51.400;6.692;2023-09-19T06:57:39;16.10;76.50
78325;DHT22;67584;51.400;6.692;2023-09-19T07:00:09;16.10;76.40
78325;DHT22;67584;51.400;6.692;2023-09-19T07:02:44;16.20;76.30
78325;DHT22;67584;51.400;6.692;2023-09-19T07:05:10;16.20;76.30
78325;DHT22;67584;51.400;6.692;2023-09-19T07:07:36;16.20;75.80
78325;DHT22;67584;51.400;6.692;2023-09-19T07:10:03;16.40;76.10
78325;DHT22;67584;51.400;6.692;2023-09-19T07:12:31;16.40;75.90
78325;DHT22;67584;51.400;6.692;2023-09-19T07:14:58;16.40;76.00
78325;DHT22;67584;51.400;6.692;2023-09-19T07:17:24;16.50;75.80
78325;DHT22;67584;51.400;6.692;2023-09-19T07:19:50;16.50;75.30
78325;DHT22;67584;51.400;6.692;2023-09-19T07:22:16;16.50;75.50
78325;DHT22;67584;51.400;6.692;2023-09-19T07:24:41;16.60;75.40
78325;DHT22;67584;51.400;6.692;2023-09-19T07:27:08;16.60;75.50
78325;DHT22;67584;51.400;6.692;2023-09-19T07:29:34;16.70;75.30
78325;DHT22;67584;51.400;6.692;2023-09-19T07:32:00;16.70;75.10
78325;DHT22;67584;51.400;6.692;2023-09-19T07:34:25;16.80;74.90
78325;DHT22;67584;51.400;6.692;2023-09-19T07:36:51;16.80;74.80
78325;DHT22;67584;51.400;6.692;2023-09-19T07:39:17;16.80;74.50
78325;DHT22;67584;51.400;6.692;2023-09-19T07:41:42;16.90;74.90
78325;DHT22;67584;51.400;6.692;2023-09-19T07:44:08;16.90;74.60
78325;DHT22;67584;51.400;6.692;2023-09-19T07:46:35;17.00;74.50
78325;DHT22;67584;51.400;6.692;2023-09-19T07:49:01;16.80;74.40
78325;DHT22;67584;51.400;6.692;2023-09-19T07:51:27;17.00;74.00
78325;DHT22;67584;51.400;6.692;2023-09-19T07:53:53;16.90;74.20
78325;DHT22;67584;51.400;6.692;2023-09-19T07:56:20;16.90;74.20
78325;DHT22;67584;51.400;6.692;2023-09-19T07:58:46;17.00;74.10
78325;DHT22;67584;51.400;6.692;2023-09-19T08:01:12;17.10;74.10
78325;DHT22;67584;51.400;6.692;2023-09-19T08:03:39;17.10;74.00
78325;DHT22;67584;51.400;6.692;2023-09-19T08:06:09;17.30;73.80
78325;DHT22;67584;51.400;6.692;2023-09-19T08:08:36;17.50;73.20
78325;DHT22;67584;51.400;6.692;2023-09-19T08:11:03;17.50;73.10
78325;DHT22;67584;51.400;6.692;2023-09-19T08:13:46;17.80;72.70
78325;DHT22;67584;51.400;6.692;2023-09-19T08:16:15;17.70;72.50
78325;DHT22;67584;51.400;6.692;2023-09-19T08:18:41;17.60;72.30
78325;DHT22;67584;51.400;6.692;2023-09-19T08:21:07;17.80;72.30
78325;DHT22;67584;51.400;6.692;2023-09-19T08:23:38;18.00;71.90
78325;DHT22;67584;51.400;6.692;2023-09-19T08:26:05;18.10;70.90
78325;DHT22;67584;51.400;6.692;2023-09-19T08:28:34;18.00;71.40
78325;DHT22;67584;51.400;6.692;2023-09-19T08:31:03;18.00;70.90
78325;DHT22;67584;51.400;6.692;2023-09-19T08:33:36;18.10;71.00
78325;DHT22;67584;51.400;6.692;2023-09-19T08:36:03;18.30;70.70
78325;DHT22;67584;51.400;6.692;2023-09-19T08:38:33;18.30;69.90
78325;DHT22;67584;51.400;6.692;2023-09-19T08:41:00;18.30;68.60
78325;DHT22;67584;51.400;6.692;2023-09-19T08:43:30;18.30;70.00
78325;DHT22;67584;51.400;6.692;2023-09-19T08:46:11;18.50;68.40
78325;DHT22;67584;51.400;6.692;2023-09-19T08:49:05;18.60;68.10
78325;DHT22;67584;51.400;6.692;2023-09-19T08:51:56;18.70;67.70
78325;DHT22;67584;51.400;6.692;2023-09-19T08:54:33;18.70;67.60
78325;DHT22;67584;51.400;6.692;2023-09-19T08:57:05;18.90;66.80
78325;DHT22;67584;51.400;6.692;2023-09-19T08:59:33;18.80;67.50
78325;DHT22;67584;51.400;6.692;2023-09-19T09:02:01;18.90;67.10
78325;DHT22;67584;51.400;6.692;2023-09-19T09:04:29;19.10;66.50
78325;DHT22;67584;51.400;6.692;2023-09-19T09:06:56;19.30;66.00
78325;DHT22;67584;51.400;6.692;2023-09-19T09:09:23;19.00;65.80
78325;DHT22;67584;51.400;6.692;2023-09-19T09:11:50;19.20;65.80
78325;DHT22;67584;51.400;6.692;2023-09-19T09:14:20;19.70;65.40
78325;DHT22;67584;51.400;6.692;2023-09-19T09:16:46;19.90;63.60
78325;DHT22;67584;51.400;6.692;2023-09-19T09:19:14;19.90;63.50
78325;DHT22;67584;51.400;6.692;2023-09-19T09:21:46;19.80;63.10
78325;DHT22;67584;51.400;6.692;2023-09-19T09:24:51;20.50;62.30
78325;DHT22;67584;51.400;6.692;2023-09-19T09:27:19;20.80;60.50
78325;DHT22;67584;51.400;6.692;2023-09-19T09:29:47;21.10;60.60
78325;DHT22;67584;51.400;6.692;2023-09-19T09:32:29;21.00;59.40
78325;DHT22;67584;51.400;6.692;2023-09-19T09:34:58;20.70;60.40
78325;DHT22;67584;51.400;6.692;2023-09-19T09:37:25;20.60;61.10
78325;DHT22;67584;51.400;6.692;2023-09-19T09:40:02;20.90;60.50
78325;DHT22;67584;51.400;6.692;2023-09-19T09:42:40;20.20;62.30
78325;DHT22;67584;51.400;6.692;2023-09-19T09:45:18;20.00;61.60
78325;DHT22;67584;51.400;6.692;2023-09-19T09:47:48;20.00;62.70
78325;DHT22;67584;51.400;6.692;2023-09-19T09:50:31;20.10;61.50
78325;DHT22;67584;51.400;6.692;2023-09-19T09:53:26;20.50;60.10
78325;DHT22;67584;51.400;6.692;2023-09-19T09:56:05;20.70;58.90
78325;DHT22;67584;51.400;6.692;2023-09-19T09:58:35;21.00;57.80
78325;DHT22;67584;51.400;6.692;2023-09-19T10:01:02;21.10;58.70
78325;DHT22;67584;51.400;6.692;2023-09-19T10:03:38;21.10;59.00
78325;DHT22;67584;51.400;6.692;2023-09-19T10:06:14;20.80;58.40
78325;DHT22;67584;51.400;6.692;2023-09-19T10:11:42;20.60;59.10
78325;DHT22;67584;51.400;6.692;2023-09-19T10:14:13;21.40;57.20
78325;DHT22;67584;51.400;6.692;2023-09-19T10:16:50;21.60;57.70
78325;DHT22;67584;51.400;6.692;2023-09-19T10:19:33;22.40;55.60
78325;DHT22;67584;51.400;6.692;2023-09-19T10:22:02;23.00;54.00
78325;DHT22;67584;51.400;6.692;2023-09-19T10:24:30;23.40;52.40
78325;DHT22;67584;51.400;6.692;2023-09-19T10:26:57;24.50;49.60
78325;DHT22;67584;51.400;6.692;2023-09-19T10:29:25;24.30;49.00
78325;DHT22;67584;51.400;6.692;2023-09-19T10:31:54;23.50;49.90
78325;DHT22;67584;51.400;6.692;2023-09-19T10:34:25;23.30;51.00
78325;DHT22;67584;51.400;6.692;2023-09-19T10:36:52;24.00;50.20
78325;DHT22;67584;51.400;6.692;2023-09-19T10:39:18;24.40;47.10
78325;DHT22;67584;51.400;6.692;2023-09-19T10:41:51;24.10;49.30
78325;DHT22;67584;51.400;6.692;2023-09-19T10:44:25;24.60;47.30
78325;DHT22;67584;51.400;6.692;2023-09-19T10:46:52;25.40;46.50
78325;DHT22;67584;51.400;6.692;2023-09-19T10:49:21;25.00;46.50
78325;DHT22;67584;51.400;6.692;2023-09-19T10:51:49;23.90;49.00
78325;DHT22;67584;51.400;6.692;2023-09-19T10:54:19;24.30;48.30
78325;DHT22;67584;51.400;6.692;2023-09-19T10:56:49;24.60;47.90
78325;DHT22;67584;51.400;6.692;2023-09-19T10:59:20;25.60;45.80
78325;DHT22;67584;51.400;6.692;2023-09-19T11:01:56;25.80;44.60
78325;DHT22;67584;51.400;6.692;2023-09-19T11:04:33;25.20;45.20
78325;DHT22;67584;51.400;6.692;2023-09-19T11:07:07;23.80;47.90
78325;DHT22;67584;51.400;6.692;2023-09-19T11:09:55;23.10;48.40
78325;DHT22;67584;51.400;6.692;2023-09-19T11:12:48;22.00;51.30
78325;DHT22;67584;51.400;6.692;2023-09-19T11:21:53;23.00;50.30
78325;DHT22;67584;51.400;6.692;2023-09-19T11:26:49;23.30;49.20
78325;DHT22;67584;51.400;6.692;2023-09-19T11:29:28;23.00;49.70
78325;DHT22;67584;51.400;6.692;2023-09-19T11:31:58;22.90;50.20
78325;DHT22;67584;51.400;6.692;2023-09-19T11:39:40;22.60;50.40
78325;DHT22;67584;51.400;6.692;2023-09-19T11:42:44;22.30;51.00
78325;DHT22;67584;51.400;6.692;2023-09-19T11:48:17;24.40;45.80
78325;DHT22;67584;51.400;6.692;2023-09-19T11:50:45;24.80;44.80
78325;DHT22;67584;51.400;6.692;2023-09-19T11:53:12;24.60;45.10
78325;DHT22;67584;51.400;6.692;2023-09-19T11:55:40;24.30;46.00
78325;DHT22;67584;51.400;6.692;2023-09-19T11:58:09;24.20;45.60
78325;DHT22;67584;51.400;6.692;2023-09-19T12:00:38;24.70;45.60
78325;DHT22;67584;51.400;6.692;2023-09-19T12:03:10;25.20;44.10
78325;DHT22;67584;51.400;6.692;2023-09-19T12:05:40;25.40;42.20
78325;DHT22;67584;51.400;6.692;2023-09-19T12:08:07;24.90;44.10
78325;DHT22;67584;51.400;6.692;2023-09-19T12:10:47;25.50;42.10
78325;DHT22;67584;51.400;6.692;2023-09-19T12:13:18;26.30;40.20
78325;DHT22;67584;51.400;6.692;2023-09-19T12:15:44;26.60;39.70
78325;DHT22;67584;51.400;6.692;2023-09-19T12:18:38;26.60;40.30
78325;DHT22;67584;51.400;6.692;2023-09-19T12:21:05;26.70;40.20
78325;DHT22;67584;51.400;6.692;2023-09-19T12:23:32;27.10;38.40
78325;DHT22;67584;51.400;6.692;2023-09-19T12:26:02;27.30;39.50
78325;DHT22;67584;51.400;6.692;2023-09-19T12:28:41;27.40;38.20
78325;DHT22;67584;51.400;6.692;2023-09-19T12:31:07;26.80;40.20
78325;DHT22;67584;51.400;6.692;2023-09-19T12:33:34;26.30;39.90
78325;DHT22;67584;51.400;6.692;2023-09-19T12:36:03;26.00;40.40
78325;DHT22;67584;51.400;6.692;2023-09-19T12:38:48;27.00;39.30
78325;DHT22;67584;51.400;6.692;2023-09-19T12:41:14;27.00;38.90
78325;DHT22;67584;51.400;6.692;2023-09-19T12:43:40;27.30;39.60
78325;DHT22;67584;51.400;6.692;2023-09-19T12:46:07;27.90;37.80
78325;DHT22;67584;51.400;6.692;2023-09-19T12:48:33;28.20;38.10
78325;DHT22;67584;51.400;6.692;2023-09-19T12:53:34;28.10;38.00
78325;DHT22;67584;51.400;6.692;2023-09-19T12:56:03;27.90;38.00
78325;DHT22;67584;51.400;6.692;2023-09-19T12:58:34;26.60;39.30
78325;DHT22;67584;51.400;6.692;2023-09-19T13:01:01;25.80;40.90
78325;DHT22;67584;51.400;6.692;2023-09-19T13:03:30;24.80;42.90
78325;DHT22;67584;51.400;6.692;2023-09-19T13:06:01;24.90;43.60
78325;DHT22;67584;51.400;6.692;2023-09-19T13:11:17;23.00;46.60
78325;DHT22;67584;51.400;6.692;2023-09-19T13:14:01;23.70;45.90
78325;DHT22;67584;51.400;6.692;2023-09-19T13:16:56;24.30;45.20
78325;DHT22;67584;51.400;6.692;2023-09-19T13:22:42;24.80;44.30
78325;DHT22;67584;51.400;6.692;2023-09-19T13:25:13;24.30;45.00
78325;DHT22;67584;51.400;6.692;2023-09-19T13:27:48;22.90;47.70
78325;DHT22;67584;51.400;6.692;2023-09-19T13:30:17;22.50;48.90
78325;DHT22;67584;51.400;6.692;2023-09-19T13:32:43;22.10;50.00
78325;DHT22;67584;51.400;6.692;2023-09-19T13:35:10;21.60;51.30
78325;DHT22;67584;51.400;6.692;2023-09-19T13:37:37;21.50;51.90
78325;DHT22;67584;51.400;6.692;2023-09-19T13:40:07;21.30;52.40
78325;DHT22;67584;51.400;6.692;2023-09-19T13:42:33;21.00;53.00
78325;DHT22;67584;51.400;6.692;2023-09-19T13:45:00;20.90;53.80
78325;DHT22;67584;51.400;6.692;2023-09-19T13:47:25;20.90;54.10
78325;DHT22;67584;51.400;6.692;2023-09-19T13:49:52;20.80;54.30
78325;DHT22;67584;51.400;6.692;2023-09-19T13:52:19;20.90;54.60
78325;DHT22;67584;51.400;6.692;2023-09-19T13:54:45;20.80;54.80
78325;DHT22;67584;51.400;6.692;2023-09-19T13:57:11;20.80;54.60
78325;DHT22;67584;51.400;6.692;2023-09-19T13:59:36;21.10;54.80
78325;DHT22;67584;51.400;6.692;2023-09-19T14:02:02;21.20;54.10
78325;DHT22;67584;51.400;6.692;2023-09-19T14:04:29;21.10;54.60
78325;DHT22;67584;51.400;6.692;2023-09-19T14:06:57;21.00;55.10
78325;DHT22;67584;51.400;6.692;2023-09-19T14:09:24;20.90;55.20
78325;DHT22;67584;51.400;6.692;2023-09-19T14:11:50;20.70;55.50
78325;DHT22;67584;51.400;6.692;2023-09-19T14:14:18;20.80;55.50
78325;DHT22;67584;51.400;6.692;2023-09-19T14:16:44;20.80;55.90
78325;DHT22;67584;51.400;6.692;2023-09-19T14:19:11;20.90;55.60
78325;DHT22;67584;51.400;6.692;2023-09-19T14:21:40;21.00;54.90
78325;DHT22;67584;51.400;6.692;2023-09-19T14:24:06;21.10;55.30
78325;DHT22;67584;51.400;6.692;2023-09-19T14:26:41;21.20;55.20
78325;DHT22;67584;51.400;6.692;2023-09-19T14:29:06;21.20;54.30
78325;DHT22;67584;51.400;6.692;2023-09-19T14:31:33;21.30;54.80
78325;DHT22;67584;51.400;6.692;2023-09-19T14:33:59;21.40;54.60
78325;DHT22;67584;51.400;6.692;2023-09-19T14:36:25;21.60;53.90
78325;DHT22;67584;51.400;6.692;2023-09-19T14:38:55;21.70;53.70
78325;DHT22;67584;51.400;6.692;2023-09-19T14:41:23;21.50;54.30
78325;DHT22;67584;51.400;6.692;2023-09-19T14:43:51;21.20;55.10
78325;DHT22;67584;51.400;6.692;2023-09-19T14:46:16;21.10;55.70
78325;DHT22;67584;51.400;6.692;2023-09-19T14:48:44;21.00;55.80
78325;DHT22;67584;51.400;6.692;2023-09-19T14:51:12;21.10;55.80
78325;DHT22;67584;51.400;6.692;2023-09-19T14:53:42;21.70;54.10
78325;DHT22;67584;51.400;6.692;2023-09-19T14:56:09;22.00;52.80
78325;DHT22;67584;51.400;6.692;2023-09-19T14:58:35;21.80;53.40
78325;DHT22;67584;51.400;6.692;2023-09-19T15:01:08;21.40;53.80
78325;DHT22;67584;51.400;6.692;2023-09-19T15:03:36;21.10;55.20
78325;DHT22;67584;51.400;6.692;2023-09-19T15:06:04;20.90;55.70
78325;DHT22;67584;51.400;6.692;2023-09-19T15:08:35;20.70;56.00
78325;DHT22;67584;51.400;6.692;2023-09-19T15:11:08;20.70;56.30
78325;DHT22;67584;51.400;6.692;2023-09-19T15:13:36;20.60;56.60
78325;DHT22;67584;51.400;6.692;2023-09-19T15:16:03;20.80;56.30
78325;DHT22;67584;51.400;6.692;2023-09-19T15:18:30;20.70;56.10
78325;DHT22;67584;51.400;6.692;2023-09-19T15:21:03;20.90;55.80
78325;DHT22;67584;51.400;6.692;2023-09-19T15:23:39;21.10;55.00
78325;DHT22;67584;51.400;6.692;2023-09-19T15:26:06;21.90;52.80
78325;DHT22;67584;51.400;6.692;2023-09-19T15:28:33;22.60;51.40
78325;DHT22;67584;51.400;6.692;2023-09-19T15:31:00;22.90;50.70
78325;DHT22;67584;51.400;6.692;2023-09-19T15:33:26;22.60;50.30
78325;DHT22;67584;51.400;6.692;2023-09-19T15:39:00;23.10;49.60
78325;DHT22;67584;51.400;6.692;2023-09-19T15:41:40;23.90;47.50
78325;DHT22;67584;51.400;6.692;2023-09-19T15:44:18;24.50;46.70
78325;DHT22;67584;51.400;6.692;2023-09-19T15:46:44;24.30;47.60
78325;DHT22;67584;51.400;6.692;2023-09-19T15:49:10;24.30;47.50
78325;DHT22;67584;51.400;6.692;2023-09-19T15:51:36;23.30;49.10
78325;DHT22;67584;51.400;6.692;2023-09-19T15:54:08;22.50;51.50
78325;DHT22;67584;51.400;6.692;2023-09-19T15:56:34;21.80;53.00
78325;DHT22;67584;51.400;6.692;2023-09-19T15:59:04;21.40;54.40
78325;DHT22;67584;51.400;6.692;2023-09-19T16:01:29;21.20;55.20
78325;DHT22;67584;51.400;6.692;2023-09-19T16:03:55;20.90;55.90
78325;DHT22;67584;51.400;6.692;2023-09-19T16:06:28;21.10;56.50
78325;DHT22;67584;51.400;6.692;2023-09-19T16:08:55;21.30;55.70
78325;DHT22;67584;51.400;6.692;2023-09-19T16:11:22;21.30;55.90
78325;DHT22;67584;51.400;6.692;2023-09-19T16:13:49;21.30;56.10
78325;DHT22;67584;51.400;6.692;2023-09-19T16:16:16;21.40;55.90
78325;DHT22;67584;51.400;6.692;2023-09-19T16:18:50;21.30;56.30
78325;DHT22;67584;51.400;6.692;2023-09-19T16:21:21;21.50;55.80
78325;DHT22;67584;51.400;6.692;2023-09-19T16:23:47;22.20;54.70
78325;DHT22;67584;51.400;6.692;2023-09-19T16:26:15;23.40;51.50